createdAt,value
2022-08-03T00:04:20.664Z,3.88
2022-08-03T00:10:22.421Z,4.10
2022-08-03T00:16:25.595Z,4.50
2022-08-03T00:22:27.451Z,4.03
2022-08-03T00:28:29.472Z,3.78
2022-08-03T00:34:36.513Z,4.25
2022-08-03T00:40:53.760Z,4.40
2022-08-03T00:46:55.529Z,4.70
2022-08-03T00:52:59.706Z,4.35
2022-08-03T00:59:03.382Z,4.72
2022-08-03T01:05:05.610Z,4.53
2022-08-03T01:11:17.645Z,4.32
2022-08-03T01:17:36.753Z,4.43
2022-08-03T01:23:44.750Z,4.40
2022-08-03T01:29:57.119Z,4.60
2022-08-03T01:36:16.488Z,5.03
2022-08-03T01:42:19.947Z,4.57
2022-08-03T01:48:22.514Z,4.70
2022-08-03T01:54:26.202Z,4.68
2022-08-03T02:00:28.286Z,5.65
2022-08-03T02:06:59.797Z,5.28
2022-08-03T02:12:59.044Z,5.00
2022-08-03T02:19:04.332Z,5.25
2022-08-03T02:25:08.438Z,5.60
2022-08-03T02:31:16.588Z,4.85
2022-08-03T02:37:19.841Z,5.22
2022-08-03T02:43:24.248Z,5.00
2022-08-03T02:49:40.830Z,5.45
2022-08-03T02:55:50.673Z,5.25
2022-08-03T03:01:54.706Z,5.38
2022-08-03T03:07:57.127Z,6.72
2022-08-03T03:14:00.769Z,5.95
2022-08-03T03:20:03.846Z,5.60
2022-08-03T03:26:06.630Z,5.30
2022-08-03T03:32:09.273Z,5.75
2022-08-03T03:38:11.856Z,6.47
2022-08-03T03:44:15.446Z,6.10
2022-08-03T03:50:19.366Z,5.50
2022-08-03T03:56:21.285Z,6.25
2022-08-03T04:02:23.338Z,6.05
2022-08-03T04:08:43.813Z,5.68
2022-08-03T04:14:53.708Z,5.68
2022-08-03T04:20:57.749Z,5.97
2022-08-03T04:27:02.694Z,5.55
2022-08-03T04:33:05.439Z,6.32
2022-08-03T04:39:12.496Z,5.78
2022-08-03T04:45:16.295Z,6.18
2022-08-03T04:51:18.457Z,6.15
2022-08-03T04:57:23.078Z,5.35
2022-08-03T05:03:25.355Z,4.43
2022-08-03T05:09:50.455Z,4.20
2022-08-03T05:15:49.395Z,4.63
2022-08-03T05:21:52.848Z,4.03
2022-08-03T05:27:54.880Z,3.70
2022-08-03T05:33:57.569Z,3.92
2022-08-03T05:39:59.406Z,4.03
2022-08-03T05:46:08.107Z,3.33
2022-08-03T05:52:16.986Z,2.75
2022-08-03T05:58:19.885Z,3.03
2022-08-03T06:04:21.818Z,3.25
2022-08-03T06:10:36.980Z,3.20
2022-08-03T06:16:39.943Z,2.83
2022-08-03T06:22:50.881Z,2.90
2022-08-03T06:29:03.844Z,2.78
2022-08-03T06:35:10.146Z,2.58
2022-08-03T06:41:11.988Z,2.58
2022-08-03T06:47:13.820Z,2.45
2022-08-03T06:53:21.190Z,2.20
2022-08-03T07:05:49.167Z,2.17
2022-08-03T07:11:50.932Z,2.15
2022-08-03T07:17:52.758Z,1.80
2022-08-03T07:23:54.613Z,1.85
2022-08-03T07:29:58.490Z,2.00
2022-08-03T07:36:00.330Z,2.03
2022-08-03T07:42:02.320Z,1.90
2022-08-03T07:48:08.778Z,2.00
2022-08-03T07:54:14.581Z,2.20
2022-08-03T08:00:18.804Z,2.13
2022-08-03T08:06:21.651Z,2.00
2022-08-03T08:12:23.698Z,2.00
2022-08-03T08:18:25.863Z,2.10
2022-08-03T08:24:30.288Z,2.00
2022-08-03T08:30:33.782Z,2.22
2022-08-03T08:36:37.089Z,1.90
2022-08-03T08:42:51.873Z,1.80
2022-08-03T08:49:00.476Z,1.85
2022-08-03T09:01:13.525Z,2.00
2022-08-03T09:07:20.609Z,1.38
2022-08-03T09:19:24.623Z,1.60
2022-08-03T09:25:34.781Z,1.70
2022-08-03T09:31:44.374Z,1.60
2022-08-03T09:38:12.805Z,1.30
2022-08-03T09:44:09.012Z,1.60
2022-08-03T09:50:26.615Z,2.05
2022-08-03T09:56:42.187Z,1.40
2022-08-03T10:02:45.363Z,1.58
2022-08-03T10:08:47.632Z,1.60
2022-08-03T10:14:49.666Z,1.40
2022-08-03T10:20:53.833Z,1.30
2022-08-03T10:27:09.895Z,1.58
2022-08-03T10:33:50.183Z,1.70
2022-08-03T10:39:56.353Z,1.80
2022-08-03T10:46:00.355Z,1.50
2022-08-03T10:52:09.665Z,1.23
2022-08-03T10:58:15.112Z,1.55
2022-08-03T11:04:32.577Z,1.40
2022-08-03T11:10:35.354Z,1.50
2022-08-03T11:16:41.872Z,1.60
2022-08-03T11:22:54.620Z,1.67
2022-08-03T11:29:29.783Z,1.50
2022-08-03T11:35:35.471Z,1.30
2022-08-03T11:41:43.338Z,1.35
2022-08-03T11:47:50.690Z,1.50
2022-08-03T11:53:57.592Z,1.40
2022-08-03T11:59:59.905Z,1.33
2022-08-03T12:06:02.441Z,1.40
2022-08-03T12:12:06.570Z,1.38
2022-08-03T12:18:17.075Z,1.45
2022-08-03T12:24:18.915Z,1.20
2022-08-03T12:30:20.855Z,1.23
2022-08-03T12:36:25.913Z,1.40
2022-08-03T12:42:35.751Z,1.20
2022-08-03T12:48:54.640Z,1.02
2022-08-03T12:54:58.176Z,1.20
2022-08-03T13:01:00.095Z,1.20
2022-08-03T13:07:14.284Z,1.25
2022-08-03T13:13:16.753Z,1.25
2022-08-03T13:19:18.885Z,1.20
2022-08-03T13:25:20.836Z,1.20
2022-08-03T13:31:22.719Z,1.08
2022-08-03T13:37:25.318Z,1.25
2022-08-03T13:43:27.384Z,1.58
2022-08-03T13:49:30.026Z,1.40
2022-08-03T13:55:31.926Z,1.40
2022-08-03T14:01:54.302Z,1.48
2022-08-03T14:07:58.522Z,1.25
2022-08-03T14:14:06.766Z,1.35
2022-08-03T14:20:38.959Z,1.23
2022-08-03T14:26:31.791Z,1.20
2022-08-03T14:32:33.713Z,1.20
2022-08-03T14:38:35.646Z,1.38
2022-08-03T14:44:37.479Z,1.60
2022-08-03T14:50:44.227Z,1.15
2022-08-03T14:56:48.809Z,1.00
2022-08-03T15:02:50.840Z,1.30
2022-08-03T15:09:21.688Z,1.40
2022-08-03T15:15:14.987Z,1.27
2022-08-03T15:21:20.825Z,0.93
2022-08-03T15:28:02.771Z,1.13
2022-08-03T15:34:00.914Z,1.38
2022-08-03T15:40:03.629Z,1.20
2022-08-03T15:46:28.679Z,1.20
2022-08-03T15:52:28.031Z,1.38
2022-08-03T15:59:03.571Z,1.42
2022-08-03T16:04:52.345Z,1.30
2022-08-03T16:10:54.279Z,1.30
2022-08-03T16:16:56.905Z,1.40
2022-08-03T16:22:58.983Z,1.40
2022-08-03T16:29:03.624Z,1.40
2022-08-03T16:35:06.454Z,1.25
2022-08-03T16:41:08.290Z,1.25
2022-08-03T16:47:10.128Z,1.40
2022-08-03T16:53:51.570Z,1.27
2022-08-03T16:59:47.328Z,1.58
2022-08-03T17:05:52.890Z,1.60
2022-08-03T17:11:54.637Z,1.27
2022-08-03T17:18:07.739Z,1.40
2022-08-03T17:24:20.475Z,1.48
2022-08-03T17:30:22.294Z,1.40
2022-08-03T17:36:47.581Z,1.50
2022-08-03T17:42:50.455Z,1.73
2022-08-03T17:48:54.066Z,1.50
2022-08-03T17:55:56.146Z,1.70
2022-08-03T18:02:30.437Z,1.45
2022-08-03T18:08:37.060Z,1.80
2022-08-03T18:14:57.918Z,1.70
2022-08-03T18:21:09.323Z,1.90
2022-08-03T18:27:21.493Z,1.80
2022-08-03T18:34:16.593Z,1.85
2022-08-03T18:39:52.877Z,1.80
2022-08-03T18:45:58.123Z,1.97
2022-08-03T18:52:04.797Z,1.60
2022-08-03T18:58:17.985Z,1.70
2022-08-03T19:04:33.386Z,1.70
2022-08-03T19:10:38.230Z,1.80
2022-08-03T19:16:47.248Z,1.90
2022-08-03T19:22:51.354Z,1.92
2022-08-03T19:28:59.451Z,1.92
2022-08-03T19:35:05.493Z,2.28
2022-08-03T19:41:23.488Z,2.50
2022-08-03T19:47:31.891Z,2.28
2022-08-03T19:53:37.229Z,2.10
2022-08-03T19:59:50.181Z,2.17
2022-08-03T20:05:54.174Z,2.10
2022-08-03T20:11:59.717Z,2.15
2022-08-03T20:18:01.597Z,2.10
2022-08-03T20:24:24.255Z,3.40
2022-08-03T20:30:27.299Z,3.90
2022-08-03T20:36:30.464Z,3.70
2022-08-03T20:42:35.856Z,3.30
2022-08-03T20:48:37.984Z,2.95
2022-08-03T20:54:41.427Z,3.20
2022-08-03T21:00:44.325Z,2.80
2022-08-03T21:06:57.403Z,2.65
2022-08-03T21:13:38.231Z,3.03
2022-08-03T21:19:52.159Z,3.15
2022-08-03T21:25:54.652Z,3.17
2022-08-03T21:31:58.030Z,2.88
2022-08-03T21:38:18.521Z,3.00
2022-08-03T21:44:25.117Z,3.50
2022-08-03T21:50:34.164Z,3.30
2022-08-03T21:56:41.019Z,3.38
2022-08-03T22:02:54.524Z,3.27
2022-08-03T22:08:58.166Z,3.97
2022-08-03T22:15:02.300Z,3.90
2022-08-03T22:21:06.649Z,3.40
2022-08-03T22:27:30.964Z,3.05
2022-08-03T22:33:36.639Z,3.17
2022-08-03T22:39:39.867Z,3.90
2022-08-03T22:46:09.024Z,3.75
2022-08-03T22:52:10.146Z,3.58
2022-08-03T22:58:15.558Z,4.07
2022-08-03T23:04:18.672Z,4.47
2022-08-03T23:10:27.229Z,4.20
2022-08-03T23:16:30.095Z,4.30
2022-08-03T23:22:38.946Z,3.65
2022-08-03T23:28:48.634Z,3.90
2022-08-03T23:35:12.042Z,3.70
2022-08-03T23:41:14.812Z,3.88
2022-08-03T23:47:16.635Z,4.00
2022-08-03T23:53:25.692Z,4.40
2022-08-03T23:59:49.128Z,5.20
